Time;durP1;ratioP1;P1;durP2;ratioP2;P2;SDS_P1;SDS_P2;PMS_P1;PMS_P2;Temp;Humidity;BMP_temperature;BMP_pressure;BME280_temperature;BME280_humidity;BME280_pressure;Samples;Min_cycle;Max_cycle;Signal;HPM_P1;HPM_P2
2021/09/28 00:01:13;;;;;;;1.43;0.60;;;;;;;;;;5070343;28;20441;-69
2021/09/28 00:03:40;;;;;;;1.33;0.90;;;;;;;;;;5070701;28;20446;-69
2021/09/28 00:06:09;;;;;;;1.00;0.60;;;;;;;;;;5070135;28;20456;-69
2021/09/28 00:08:37;;;;;;;0.80;0.77;;;19.40;1.00;;;;;;5071613;28;20532;-68
2021/09/28 00:11:04;;;;;;;0.77;0.60;;;16.30;1.00;;;;;;5064397;28;20450;-69
2021/09/28 00:13:31;;;;;;;0.90;0.60;;;16.00;1.00;;;;;;5070634;28;20533;-69
2021/09/28 00:15:58;;;;;;;1.47;0.60;;;15.90;99.90;;;;;;5069705;28;20901;-68
2021/09/28 00:18:26;;;;;;;0.80;0.60;;;15.90;99.90;;;;;;5071129;28;20529;-68
2021/09/28 00:20:53;;;;;;;1.50;0.90;;;15.90;27.40;;;;;;5069845;28;20450;-71
2021/09/28 00:23:21;;;;;;;1.17;0.63;;;15.70;99.90;;;;;;5070577;28;20488;-69
2021/09/28 00:25:49;;;;;;;0.70;0.60;;;15.80;1.00;;;;;;5071083;28;20552;-72
2021/09/28 00:28:17;;;;;;;0.80;0.60;;;15.80;1.00;;;;;;5070685;28;20451;-69
2021/09/28 00:30:44;;;;;;;1.00;0.63;;;15.90;1.00;;;;;;5070793;28;20860;-68
2021/09/28 00:33:10;;;;;;;1.00;0.90;;;15.80;99.90;;;;;;5069584;28;20532;-69
2021/09/28 00:35:38;;;;;;;0.80;0.70;;;15.80;99.90;;;;;;5070179;28;20972;-69
2021/09/28 00:38:05;;;;;;;0.83;0.70;;;15.90;1.00;;;;;;5069735;28;21045;-69
2021/09/28 00:40:34;;;;;;;1.03;0.80;;;16.00;1.00;;;;;;5070742;28;20449;-69
2021/09/28 00:43:01;;;;;;;1.43;0.70;;;15.90;99.90;;;;;;5069396;28;20477;-70
2021/09/28 00:45:28;;;;;;;3.20;0.70;;;15.80;1.00;;;;;;5070535;28;20558;-69
2021/09/28 00:47:54;;;;;;;2.13;0.97;;;15.60;97.60;;;;;;5069179;28;20461;-69
2021/09/28 00:50:21;;;;;;;3.43;0.80;;;15.60;14.30;;;;;;5070354;28;20537;-68
2021/09/28 00:52:49;;;;;;;1.07;0.60;;;;;;;;;;5068734;28;21044;-71
2021/09/28 00:55:16;;;;;;;1.20;0.67;;;;;;;;;;5069552;28;20560;-68
2021/09/28 00:57:45;;;;;;;1.47;0.80;;;;;;;;;;5070117;28;20457;-68
2021/09/28 01:00:13;;;;;;;2.57;0.93;;;;;;;;;;5069558;28;20442;-69
2021/09/28 01:02:42;;;;;;;0.87;0.70;;;;;;;;;;5069687;28;20544;-68
2021/09/28 01:05:10;;;;;;;2.40;0.80;;;;;;;;;;5069351;28;20449;-69
2021/09/28 01:07:37;;;;;;;1.80;1.10;;;;;;;;;;5070347;28;20549;-69
2021/09/28 01:10:04;;;;;;;3.60;1.20;;;;;;;;;;5069511;28;20956;-69
2021/09/28 01:12:31;;;;;;;1.40;0.90;;;;;;;;;;5069921;28;20540;-69
2021/09/28 01:15:00;;;;;;;1.60;0.70;;;;;;;;;;5069897;28;20575;-68
2021/09/28 01:17:27;;;;;;;2.10;0.90;;;;;;;;;;5070744;28;20886;-68
2021/09/28 01:19:54;;;;;;;2.73;1.00;;;;;;;;;;5069605;28;20888;-69
2021/09/28 01:22:23;;;;;;;1.37;0.83;;;;;;;;;;5069537;28;20852;-68
2021/09/28 01:24:50;;;;;;;1.80;0.87;;;;;;;;;;5069416;28;20453;-69
2021/09/28 01:27:18;;;;;;;1.50;0.80;;;;;;;;;;5069583;28;20861;-68
2021/09/28 01:29:45;;;;;;;1.10;0.93;;;;;;;;;;5070031;28;20971;-68
2021/09/28 01:32:13;;;;;;;1.37;0.83;;;;;;;;;;5068337;28;20521;-68
2021/09/28 01:34:40;;;;;;;3.60;0.80;;;;;;;;;;5069679;28;20484;-69
2021/09/28 01:37:07;;;;;;;1.63;0.90;;;;;;;;;;5069991;28;20564;-68
2021/09/28 01:39:36;;;;;;;2.40;0.57;;;;;;;;;;5067970;28;20524;-68
2021/09/28 01:42:03;;;;;;;1.53;0.90;;;;;;;;;;5068879;28;20878;-69
2021/09/28 01:44:34;;;;;;;3.20;1.00;;;;;;;;;;5069367;28;20450;-69
2021/09/28 01:47:01;;;;;;;1.83;1.00;;;;;;;;;;5069314;28;20455;-69
2021/09/28 01:49:28;;;;;;;3.73;0.90;;;;;;;;;;5068753;28;20496;-71
2021/09/28 01:51:55;;;;;;;1.37;0.97;;;;;;;;;;5068779;28;20438;-68
2021/09/28 01:54:23;;;;;;;1.10;0.70;;;;;;;;;;5068355;28;20489;-69
2021/09/28 01:56:51;;;;;;;1.63;0.90;;;;;;;;;;5068848;28;20511;-71
2021/09/28 01:59:18;;;;;;;2.40;1.00;;;;;;;;;;5069268;28;20949;-68
2021/09/28 02:01:46;;;;;;;2.07;0.80;;;;;;;;;;5068763;28;20542;-68
2021/09/28 02:04:13;;;;;;;2.73;0.97;;;;;;;;;;5067381;28;20446;-68
2021/09/28 02:06:40;;;;;;;2.23;0.83;;;;;;;;;;5066113;28;20901;-68
2021/09/28 02:09:08;;;;;;;2.50;1.37;;;;;;;;;;5068595;28;20446;-69
2021/09/28 02:11:36;;;;;;;1.80;0.80;;;;;;;;;;5068356;28;20540;-68
2021/09/28 02:14:05;;;;;;;1.43;0.80;;;;;;;;;;5068016;28;20484;-68
2021/09/28 02:16:32;;;;;;;1.97;1.27;;;;;;;;;;5068920;28;20537;-69
2021/09/28 02:18:59;;;;;;;7.20;1.90;;;;;;;;;;5068242;28;20893;-68
2021/09/28 02:21:26;;;;;;;3.40;0.90;;;;;;;;;;5068792;28;20453;-68
2021/09/28 02:23:53;;;;;;;1.17;0.80;;;;;;;;;;5067466;28;20866;-69
2021/09/28 02:26:21;;;;;;;3.37;0.70;;;;;;;;;;5068497;28;20479;-69
2021/09/28 02:28:48;;;;;;;4.30;0.80;;;;;;;;;;5069016;28;20623;-70
2021/09/28 02:31:17;;;;;;;2.60;0.90;;;;;;;;;;5068494;28;20456;-68
2021/09/28 02:33:44;;;;;;;5.33;1.03;;;;;;;;;;5067492;28;20477;-69
2021/09/28 02:36:11;;;;;;;1.10;0.70;;;;;;;;;;5067283;28;20695;-68
2021/09/28 02:38:39;;;;;;;2.07;1.20;;;;;;;;;;5068895;28;20473;-69
2021/09/28 02:41:06;;;;;;;6.97;1.00;;;;;;;;;;5068241;28;20445;-68
2021/09/28 02:43:33;;;;;;;1.67;1.10;;;;;;;;;;5068807;28;20897;-68
2021/09/28 02:46:00;;;;;;;5.73;1.07;;;;;;;;;;5067464;28;20481;-69
2021/09/28 02:48:30;;;;;;;2.17;0.63;;;;;;;;;;5068586;28;20814;-68
2021/09/28 02:50:57;;;;;;;1.67;0.90;;;;;;;;;;5068251;28;20448;-68
2021/09/28 02:53:24;;;;;;;1.50;0.80;;;;;;;;;;5068342;28;20450;-68
2021/09/28 02:55:51;;;;;;;1.77;1.10;;;;;;;;;;5067747;28;20485;-69
2021/09/28 02:58:18;;;;;;;1.10;0.73;;;;;;;;;;5069165;28;20450;-68
2021/09/28 03:00:46;;;;;;;1.83;1.00;;;;;;;;;;5068317;28;21042;-67
2021/09/28 03:03:13;;;;;;;1.37;1.03;;;;;;;;;;5067405;28;20529;-68
2021/09/28 03:05:41;;;;;;;1.23;0.80;;;;;;;;;;5068544;28;20548;-68
2021/09/28 03:08:08;;;;;;;2.00;1.00;;;;;;;;;;5067430;28;20575;-70
2021/09/28 03:10:36;;;;;;;2.93;1.07;;;;;;;;;;5069157;28;20807;-68
2021/09/28 03:13:03;;;;;;;1.97;1.40;;;;;;;;;;5067609;28;20460;-68
2021/09/28 03:15:30;;;;;;;2.50;1.40;;;;;;;;;;5068254;28;20480;-68
2021/09/28 03:17:57;;;;;;;3.00;1.30;;;;;;;;;;5068754;28;20802;-68
2021/09/28 03:20:25;;;;;;;2.67;1.20;;;;;;;;;;5072397;28;20441;-68
2021/09/28 03:22:53;;;;;;;6.93;1.50;;;;;;;;;;5071051;28;20442;-70
2021/09/28 03:25:20;;;;;;;4.20;1.20;;;;;;;;;;5071913;28;20457;-68
2021/09/28 03:27:47;;;;;;;5.17;0.90;;;;;;;;;;5071985;28;20445;-67
2021/09/28 03:30:15;;;;;;;1.47;0.97;;;;;;;;;;5071554;28;20446;-68
2021/09/28 03:32:42;;;;;;;2.90;1.10;;;;;;;;;;5071408;28;20453;-68
2021/09/28 03:35:10;;;;;;;2.50;1.63;;;;;;;;;;5069105;28;21274;-68
2021/09/28 03:37:37;;;;;;;1.83;1.27;;;;;;;;;;5071534;28;20534;-68
2021/09/28 03:40:07;;;;;;;1.27;0.87;;;;;;;;;;5071173;28;20437;-68
2021/09/28 03:42:34;;;;;;;1.20;1.10;;;;;;;;;;5071355;28;20445;-68
2021/09/28 03:45:02;;;;;;;2.40;1.17;;;;;;;;;;5071052;28;20481;-68
2021/09/28 03:47:29;;;;;;;3.10;1.30;;;;;;;;;;5071477;28;20540;-69
2021/09/28 03:49:56;;;;;;;2.03;1.23;;;;;;;;;;5070870;28;20444;-68
2021/09/28 03:52:24;;;;;;;2.23;1.20;;;;;;;;;;5071143;28;20445;-68
2021/09/28 03:54:51;;;;;;;3.90;1.27;;;;;;;;;;5071080;28;20485;-71
2021/09/28 03:57:20;;;;;;;2.83;1.27;;;;;;;;;;5071949;28;20456;-68
2021/09/28 03:59:47;;;;;;;3.10;1.37;;;;;;;;;;5072490;28;20831;-68
2021/09/28 04:02:15;;;;;;;1.73;1.20;;;;;;;;;;5071327;28;20942;-67
2021/09/28 04:04:42;;;;;;;3.20;1.43;;;;;;;;;;5071636;28;20530;-67
2021/09/28 04:07:09;;;;;;;1.30;1.20;;;;;;;;;;5071258;28;20562;-68
2021/09/28 04:09:37;;;;;;;4.20;1.53;;;;;;;;;;5071314;28;20503;-68
2021/09/28 04:12:05;;;;;;;2.60;2.03;;;;;;;;;;5071015;28;20448;-67
2021/09/28 04:14:33;;;;;;;3.43;1.83;;;;;;;;;;5071411;28;20473;-68
2021/09/28 04:17:00;;;;;;;3.13;2.20;;;;;;;;;;5070879;28;20488;-69
2021/09/28 04:19:28;;;;;;;4.77;1.60;;;;;;;;;;5071465;28;20454;-66
2021/09/28 04:21:55;;;;;;;2.57;1.70;;;;;;;;;;5071048;28;20464;-69
2021/09/28 04:24:22;;;;;;;3.77;1.77;;;;;;;;;;5071477;28;20449;-68
2021/09/28 04:26:49;;;;;;;4.13;1.30;;;;;;;;;;5070708;28;20488;-69
2021/09/28 04:29:16;;;;;;;5.50;1.63;;;;;;;;;;5071483;28;20445;-68
2021/09/28 04:31:45;;;;;;;2.43;1.20;;;;;;;;;;5071922;28;20434;-70
2021/09/28 04:34:12;;;;;;;2.07;1.30;;;;;;;;;;5070090;28;20959;-70
2021/09/28 04:36:39;;;;;;;2.50;1.30;;;;;;;;;;5071638;28;20497;-71
2021/09/28 04:39:06;;;;;;;2.77;1.40;;;;;;;;;;5070581;28;20961;-69
2021/09/28 04:41:34;;;;;;;2.83;1.23;;;;;;;;;;5071233;28;20484;-68
2021/09/28 04:44:01;;;;;;;4.13;1.50;;;;;;;;;;5069739;28;20525;-68
2021/09/28 04:46:28;;;;;;;2.60;1.53;;;;;;;;;;5071106;28;20654;-68
2021/09/28 04:48:56;;;;;;;1.90;1.37;;;;;;;;;;5069434;28;20442;-67
2021/09/28 04:51:24;;;;;;;3.50;1.40;;;;;;;;;;5070857;28;20524;-68
2021/09/28 04:53:51;;;;;;;5.50;1.80;;;;;;;;;;5070224;28;20457;-70
2021/09/28 04:56:18;;;;;;;3.10;1.50;;;;;;;;;;5070997;28;20488;-68
2021/09/28 04:58:45;;;;;;;3.90;1.60;;;;;;;;;;5070662;28;20532;-68
2021/09/28 05:01:12;;;;;;;3.67;1.40;;;;;;;;;;5070250;28;20809;-67
2021/09/28 05:03:39;;;;;;;3.50;1.30;;;;;;;;;;5070532;28;20449;-68
2021/09/28 05:06:08;;;;;;;6.90;2.17;;;;;;;;;;5069760;28;20544;-67
2021/09/28 05:08:35;;;;;;;6.37;2.10;;;;;;;;;;5070388;28;20438;-68
2021/09/28 05:11:02;;;;;;;2.50;1.37;;;;;;;;;;5069763;28;20449;-68
2021/09/28 05:13:30;;;;;;;3.00;1.63;;;;;;;;;;5070455;28;20464;-68
2021/09/28 05:15:57;;;;;;;6.77;2.00;;;;;;;;;;5069674;28;20485;-67
2021/09/28 05:18:24;;;;;;;3.70;1.70;;;;;;;;;;5069684;28;20449;-68
2021/09/28 05:20:51;;;;;;;3.20;1.60;;;;;;;;;;5069372;28;20545;-70
2021/09/28 05:23:20;;;;;;;2.90;2.00;;;;;;;;;;5070091;28;20524;-68
2021/09/28 05:25:47;;;;;;;4.63;2.13;;;;;;;;;;5069639;28;20955;-68
2021/09/28 05:28:14;;;;;;;2.50;2.00;;;;;;;;;;5068833;28;20463;-67
2021/09/28 05:30:44;;;;;;;4.67;1.90;;;;;;;;;;5069986;28;20476;-68
2021/09/28 05:33:11;;;;;;;3.83;1.87;;;;;;;;;;5068937;28;20506;-68
2021/09/28 05:35:38;;;;;;;3.90;2.00;;;;;;;;;;5069941;28;20493;-67
2021/09/28 05:38:05;;;;;;;3.80;2.23;;;;;;;;;;5068424;28;20451;-67
2021/09/28 05:40:34;;;;;;;3.47;1.97;;;;;;;;;;5055633;28;20444;-68
2021/09/28 05:43:01;;;;;;;3.83;2.10;;;;;;;;;;5068800;28;20878;-68
2021/09/28 05:45:28;;;;;;;9.30;2.87;;;;;;;;;;5069802;28;20571;-71
2021/09/28 05:47:56;;;;;;;8.27;2.97;;;;;;;;;;5068942;28;20460;-68
2021/09/28 05:50:23;;;;;;;3.40;2.03;;;;;;;;;;5069590;28;20800;-68
2021/09/28 05:52:52;;;;;;;6.03;2.20;;;;;;;;;;5069248;28;20473;-71
2021/09/28 05:55:19;;;;;;;5.20;2.00;;;;;;;;;;5069862;28;20445;-68
2021/09/28 05:57:48;;;;;;;3.80;2.67;;;;;;;;;;5069890;28;20456;-67
2021/09/28 06:00:16;;;;;;;5.47;2.50;;;;;;;;;;5069290;28;20452;-68
2021/09/28 06:02:43;;;;;;;4.90;2.63;;;;;;;;;;5069379;28;20960;-67
2021/09/28 06:05:10;;;;;;;6.00;2.60;;;;;;;;;;5068248;28;20475;-68
2021/09/28 06:07:37;;;;;;;3.80;2.60;;;;;;;;;;5069472;28;20571;-67
2021/09/28 06:10:05;;;;;;;3.87;3.00;;;;;;;;;;5068334;28;21052;-68
2021/09/28 06:12:32;;;;;;;3.60;2.00;;;;;;;;;;5069254;28;20823;-68
2021/09/28 06:15:01;;;;;;;4.50;2.43;;;;;;;;;;5068660;28;21001;-67
2021/09/28 06:17:28;;;;;;;5.43;2.10;;;;;;;;;;5069425;28;20507;-70
2021/09/28 06:19:55;;;;;;;5.30;2.53;;;;;;;;;;5068907;28;20449;-67
2021/09/28 06:22:22;;;;;;;2.60;2.20;;;;;;;;;;5069601;28;20449;-68
2021/09/28 06:24:50;;;;;;;3.57;2.13;;;;;;;;;;5069492;28;20532;-71
2021/09/28 06:27:17;;;;;;;2.90;2.67;;;;;;;;;;5069238;28;20533;-68
2021/09/28 06:29:45;;;;;;;5.10;2.43;;;;;;;;;;5069375;28;20456;-67
2021/09/28 06:32:13;;;;;;;6.20;2.50;;;;;;;;;;5068186;28;20450;-68
2021/09/28 06:34:40;;;;;;;3.93;2.17;;;;;;;;;;5069257;28;21094;-68
2021/09/28 06:37:08;;;;;;;6.10;2.60;;;;;;;;;;5068389;28;21047;-67
2021/09/28 06:39:35;;;;;;;4.37;2.40;;;;;;;;;;5061354;28;20549;-68
2021/09/28 06:42:02;;;;;;;7.83;2.80;;;;;;;;;;5062797;28;20458;-68
2021/09/28 06:44:29;;;;;;;3.23;2.20;;;;;;;;;;5069140;28;20524;-68
2021/09/28 06:46:57;;;;;;;3.23;2.10;;;;;;;;;;5068563;28;20543;-67
2021/09/28 06:49:25;;;;;;;4.07;1.43;;;;;;;;;;5068693;28;20457;-68
2021/09/28 06:51:53;;;;;;;3.70;1.83;;;;;;;;;;5069374;28;20449;-70
2021/09/28 06:54:20;;;;;;;6.33;2.70;;;;;;;;;;5073272;28;20464;-68
2021/09/28 06:56:47;;;;;;;5.73;2.77;;;;;;;;;;5072633;28;20542;-67
2021/09/28 06:59:14;;;;;;;6.07;2.57;;;;;;;;;;5071564;28;20453;-68
2021/09/28 07:01:42;;;;;;;2.40;2.20;;;;;;;;;;5072508;28;20449;-67
2021/09/28 07:04:09;;;;;;;5.40;3.03;;;;;;;;;;5071741;28;20456;-68
2021/09/28 07:06:37;;;;;;;4.33;2.10;;;;;;;;;;5072328;28;20487;-67
2021/09/28 07:09:05;;;;;;;3.60;3.30;;;;;;;;;;5071551;28;20485;-68
2021/09/28 07:11:32;;;;;;;4.20;2.37;;;;;;;;;;5072440;28;20524;-68
2021/09/28 07:13:59;;;;;;;3.80;2.37;;;;;;;;;;5072210;28;20525;-67
2021/09/28 07:16:26;;;;;;;6.80;2.73;;;15.30;1.00;;;;;;5072375;28;20579;-67
2021/09/28 07:18:53;;;;;;;4.90;3.00;;;14.10;99.90;;;;;;5071937;28;20469;-68
2021/09/28 07:21:20;;;;;;;6.70;2.83;;;14.10;99.90;;;;;;5072910;28;20457;-68
2021/09/28 07:23:48;;;;;;;4.30;2.53;;;14.20;99.90;;;;;;5072776;28;20459;-68
2021/09/28 07:26:15;;;;;;;6.53;3.70;;;14.30;99.90;;;;;;5072824;28;20532;-68
2021/09/28 07:28:42;;;;;;;7.53;3.00;;;14.30;1.00;;;;;;5072271;28;20477;-68
2021/09/28 07:31:09;;;;;;;6.27;3.70;;;14.40;1.00;;;;;;5071746;28;20445;-68
2021/09/28 07:33:36;;;;;;;3.93;2.70;;;14.30;12.50;;;;;;5072761;28;20848;-67
2021/09/28 07:36:05;;;;;;;8.47;3.20;;;14.40;1.00;;;;;;5072068;28;20481;-68
2021/09/28 07:38:33;;;;;;;6.17;3.40;;;14.30;1.00;;;;;;5071894;28;20952;-68
2021/09/28 07:41:02;;;;;;;7.93;3.30;;;14.50;1.00;;;;;;5072031;28;20445;-68
2021/09/28 07:43:29;;;;;;;6.03;3.80;;;14.50;1.00;;;;;;5072745;28;20477;-68
2021/09/28 07:45:57;;;;;;;5.47;3.60;;;14.60;1.00;;;;;;5071624;28;20981;-67
2021/09/28 07:48:24;;;;;;;6.00;2.97;;;14.70;99.90;;;;;;5071807;28;20445;-68
2021/09/28 07:50:51;;;;;;;6.97;3.00;;;14.80;1.00;;;;;;5071759;28;20532;-71
2021/09/28 07:53:18;;;;;;;8.43;3.60;;;14.70;99.90;;;;;;5071811;28;20901;-68
2021/09/28 07:55:45;;;;;;;4.83;3.03;;;14.80;99.90;;;;;;5072344;28;20548;-68
2021/09/28 07:58:13;;;;;;;4.80;3.07;;;14.80;99.90;;;;;;5071265;28;20449;-68
2021/09/28 08:00:42;;;;;;;5.07;3.40;;;14.70;99.90;;;;;;5072139;28;20449;-67
2021/09/28 08:03:09;;;;;;;8.40;2.70;;;14.80;99.90;;;;;;5070795;28;20511;-68
2021/09/28 08:05:36;;;;;;;3.63;2.50;;;15.00;99.90;;;;;;5071823;28;20840;-68
2021/09/28 08:08:04;;;;;;;5.07;2.83;;;15.10;1.00;;;;;;5070895;28;20555;-68
2021/09/28 08:10:32;;;;;;;5.13;3.03;;;15.20;1.00;;;;;;5071871;28;20453;-68
2021/09/28 08:13:03;;;;;;;4.33;3.17;;;15.20;99.90;;;;;;5071101;28;20950;-68
2021/09/28 08:15:32;;;;;;;4.77;3.37;;;15.30;1.00;;;;;;5071720;28;20519;-69
2021/09/28 08:17:59;;;;;;;5.53;3.20;;;15.40;1.00;;;;;;5070847;28;20985;-67
2021/09/28 08:20:26;;;;;;;5.03;3.10;;;15.50;1.00;;;;;;5071817;28;20452;-68
2021/09/28 08:22:53;;;;;;;4.40;3.10;;;15.40;29.90;;;;;;5071198;28;20449;-68
2021/09/28 08:25:22;;;;;;;8.30;3.20;;;15.40;1.00;;;;;;5071595;28;21324;-68
2021/09/28 08:30:35;;;;;;;4.70;3.00;;;;;;;;;;5071403;28;20437;-68
2021/09/28 08:33:03;;;;;;;4.13;2.70;;;;;;;;;;5070417;28;20899;-67
2021/09/28 08:35:30;;;;;;;4.90;3.63;;;;;;;;;;5071237;28;20457;-68
2021/09/28 08:37:57;;;;;;;6.50;3.90;;;;;;;;;;5070104;28;20838;-67
2021/09/28 08:40:24;;;;;;;5.00;2.87;;;;;;;;;;5057777;28;20873;-67
2021/09/28 08:42:54;;;;;;;9.60;4.53;;;;;;;;;;5072537;28;20540;-71
2021/09/28 08:45:22;;;;;;;5.50;3.43;;;;;;;;;;5072202;28;20445;-67
2021/09/28 08:47:51;;;;;;;5.50;3.67;;;;;;;;;;5070870;28;20449;-71
2021/09/28 08:50:19;;;;;;;3.17;2.80;;;;;;;;;;5070539;28;20950;-67
2021/09/28 08:52:48;;;;;;;5.07;3.33;;;;;;;;;;5070799;28;20433;-67
2021/09/28 08:55:15;;;;;;;4.80;3.50;;;;;;;;;;5070046;28;20507;-68
2021/09/28 08:57:43;;;;;;;5.00;2.70;;;;;;;;;;5070608;28;20490;-68
2021/09/28 09:00:23;;;;;;;3.00;2.80;;;;;;;;;;5069508;28;20469;-67
2021/09/28 09:02:52;;;;;;;5.40;3.47;;;;;;;;;;5070421;28;20881;-71
2021/09/28 09:05:19;;;;;;;4.80;3.67;;;;;;;;;;5070532;28;20452;-68
2021/09/28 09:07:58;;;;;;;4.33;3.63;;;;;;;;;;5070075;28;20479;-67
2021/09/28 09:10:27;;;;;;;5.77;3.03;;;;;;;;;;5070358;28;20453;-68
2021/09/28 09:12:54;;;;;;;6.10;3.27;;;;;;;;;;5069671;28;20456;-68
2021/09/28 09:15:25;;;;;;;4.60;2.97;;;;;;;;;;5069663;28;20903;-68
2021/09/28 09:17:54;;;;;;;8.10;4.77;;;;;;;;;;5069099;28;20600;-71
2021/09/28 09:20:27;;;;;;;4.60;3.53;;;;;;;;;;5070395;28;20513;-68
2021/09/28 09:22:54;;;;;;;4.80;3.93;;;;;;;;;;5069235;28;20446;-68
2021/09/28 09:25:22;;;;;;;6.50;4.53;;;;;;;;;;5070244;28;20492;-68
2021/09/28 09:27:49;;;;;;;8.00;4.40;;;;;;;;;;5069525;28;21002;-71
2021/09/28 09:30:19;;;;;;;4.67;3.50;;;;;;;;;;5069687;28;20445;-67
2021/09/28 09:32:47;;;;;;;8.33;4.00;;;;;;;;;;5070014;28;20529;-68
2021/09/28 09:35:23;;;;;;;6.90;3.70;;;;;;;;;;5069079;28;20452;-68
2021/09/28 09:37:50;;;;;;;6.30;4.20;;;;;;;;;;5069013;28;20488;-71
2021/09/28 09:40:31;;;;;;;5.10;3.47;;;;;;;;;;5069855;28;20502;-68
2021/09/28 09:42:58;;;;;;;4.50;3.13;;;;;;;;;;5069295;28;20955;-68
2021/09/28 09:45:25;;;;;;;4.20;3.13;;;;;;;;;;5070055;28;20462;-68
2021/09/28 09:47:53;;;;;;;4.37;3.20;;;;;;;;;;5068822;28;20877;-71
2021/09/28 09:50:23;;;;;;;3.57;3.23;;;;;;;;;;5069820;28;20864;-68
2021/09/28 09:53:07;;;;;;;5.10;3.37;;;;;;;;;;5069484;28;20457;-71
2021/09/28 09:55:38;;;;;;;3.60;2.97;;;;;;;;;;5069558;28;20452;-68
2021/09/28 09:58:05;;;;;;;6.67;3.30;;;;;;;;;;5068470;28;20489;-68
2021/09/28 10:00:33;;;;;;;3.13;2.70;;;;;;;;;;5069319;28;20473;-68
2021/09/28 10:03:01;;;;;;;4.47;3.37;;;;;;;;;;5068687;28;20972;-68
2021/09/28 10:05:29;;;;;;;4.80;3.10;;;;;;;;;;5069618;28;20951;-68
2021/09/28 10:07:57;;;;;;;4.43;2.80;;;;;;;;;;5068383;28;20906;-68
2021/09/28 10:10:24;;;;;;;4.30;3.03;;;;;;;;;;5069898;28;20449;-68
2021/09/28 10:12:51;;;;;;;4.83;2.77;;;;;;;;;;5068754;28;20455;-71
2021/09/28 10:15:20;;;;;;;4.53;2.90;;;;;;;;;;5069674;28;20788;-68
2021/09/28 10:17:48;;;;;;;6.23;3.00;;;;;;;;;;5068967;28;20477;-67
2021/09/28 10:20:30;;;;;;;9.40;5.13;;;;;;;;;;5069258;28;20829;-68
2021/09/28 10:22:58;;;;;;;4.43;3.00;;;;;;;;;;5069008;28;20948;-68
2021/09/28 10:25:33;;;;;;;3.10;2.37;;;;;;;;;;5070065;28;20964;-68
2021/09/28 10:28:15;;;;;;;5.03;3.00;;;;;;;;;;5072524;28;20441;-70
2021/09/28 10:30:43;;;;;;;2.77;2.53;;;;;;;;;;5064919;28;20528;-67
2021/09/28 10:33:25;;;;;;;4.53;2.80;;;;;;;;;;5072350;28;20552;-68
2021/09/28 10:35:56;;;;;;;3.90;3.20;;;;;;;;;;5072387;28;20463;-71
2021/09/28 10:38:38;;;;;;;7.67;2.57;;;;;;;;;;5073294;28;20568;-67
2021/09/28 10:41:05;;;;;;;4.50;2.37;;;;;;;;;;5060144;28;20531;-68
2021/09/28 10:43:32;;;;;;;3.00;2.70;;;;;;;;;;5073322;28;20446;-68
2021/09/28 10:46:03;;;;;;;4.30;2.60;;;;;;;;;;5073453;28;20548;-68
2021/09/28 10:48:35;;;;;;;4.60;2.27;;;;;;;;;;5072946;28;20491;-69
2021/09/28 10:51:11;;;;;;;3.53;2.30;;;;;;;;;;5072930;28;20787;-68
2021/09/28 10:53:39;;;;;;;6.70;2.73;;;;;;;;;;5073213;28;20441;-68
2021/09/28 10:56:07;;;;;;;2.67;2.20;;;;;;;;;;5072711;28;20468;-68
2021/09/28 10:58:50;;;;;;;3.43;2.50;;;;;;;;;;5072698;28;20488;-68
2021/09/28 11:01:17;;;;;;;5.20;2.00;;;;;;;;;;5073214;28;20452;-68
2021/09/28 11:03:59;;;;;;;4.00;2.30;;;;;;;;;;5072756;28;21033;-68
2021/09/28 11:06:53;;;;;;;3.23;1.83;;;;;;;;;;5071329;28;20525;-68
2021/09/28 11:09:23;;;;;;;6.63;2.53;;;;;;;;;;5048389;28;20570;-68
2021/09/28 11:11:51;;;;;;;2.63;2.20;;;;;;;;;;5072322;28;20528;-71
2021/09/28 11:14:19;;;;;;;3.30;2.30;;;;;;;;;;5072963;28;20453;-67
2021/09/28 11:16:50;;;;;;;3.83;2.20;;;;;;;;;;5072914;28;20454;-67
2021/09/28 11:19:17;;;;;;;3.90;2.30;;;;;;;;;;5072376;28;20945;-68
2021/09/28 11:21:46;;;;;;;5.80;1.93;;;;;;;;;;5073052;28;20445;-68
2021/09/28 11:24:19;;;;;;;2.10;1.60;;;;;;;;;;5071637;28;20437;-68
2021/09/28 11:26:49;;;;;;;1.93;1.83;;;;;;;;;;5072918;28;20524;-68
2021/09/28 11:29:23;;;;;;;3.43;1.93;;;;;;;;;;5072219;28;20512;-68
2021/09/28 11:31:51;;;;;;;2.57;2.30;;;;;;;;;;5072189;28;20448;-71
2021/09/28 11:34:27;;;;;;;7.37;2.53;;;;;;;;;;5072626;28;20453;-67
2021/09/28 11:37:01;;;;;;;3.37;2.43;;;;;;;;;;5071634;28;20453;-68
2021/09/28 11:39:29;;;;;;;3.27;2.03;;;;;;;;;;5072049;28;20756;-68
2021/09/28 11:41:57;;;;;;;3.03;2.23;;;;;;;;;;5072239;28;20446;-68
2021/09/28 11:44:32;;;;;;;2.83;2.53;;;;;;;;;;5072224;28;20533;-67
2021/09/28 11:47:00;;;;;;;2.53;2.27;;;;;;;;;;5071808;28;20451;-68
2021/09/28 11:49:27;;;;;;;5.87;2.83;;;;;;;;;;5072235;28;20445;-68
2021/09/28 11:51:55;;;;;;;5.10;2.30;;;;;;;;;;5071446;28;20477;-68
2021/09/28 11:54:22;;;;;;;6.20;2.60;;;;;;;;;;5072032;28;20524;-68
2021/09/28 11:56:51;;;;;;;4.87;2.40;;;;;;;;;;5071766;28;20878;-71
2021/09/28 11:59:21;;;;;;;6.13;3.40;;;;;;;;;;5071402;28;20904;-69
2021/09/28 12:01:49;;;;;;;4.93;2.73;;;;;;;;;;5071663;28;20456;-71
2021/09/28 12:04:20;;;;;;;4.70;3.20;;;;;;;;;;5071984;28;20534;-67
2021/09/28 12:07:00;;;;;;;4.10;2.60;;;;;;;;;;5071738;28;20493;-68
2021/09/28 12:09:28;;;;;;;2.87;2.10;;;;;;;;;;5071958;28;20451;-68
2021/09/28 12:11:59;;;;;;;6.07;3.00;;;;;;;;;;5070655;28;20473;-68
2021/09/28 12:14:35;;;;;;;5.33;3.23;;;;;;;;;;5071675;28;20529;-69
2021/09/28 12:17:09;;;;;;;3.70;2.50;;;;;;;;;;5071185;28;20449;-68
2021/09/28 12:19:37;;;;;;;5.87;4.17;;;;;;;;;;5070929;28;20475;-68
2021/09/28 12:22:05;;;;;;;3.10;2.90;;;;;;;;;;5070577;28;20528;-68
2021/09/28 12:24:42;;;;;;;5.27;3.10;;;;;;;;;;5071260;28;20469;-68
2021/09/28 12:27:09;;;;;;;5.87;2.50;;;;;;;;;;5070496;28;20524;-68
2021/09/28 12:29:41;;;;;;;3.60;3.30;;;;;;;;;;5071095;28;20457;-68
2021/09/28 12:32:08;;;;;;;4.03;2.80;;;;;;;;;;5070423;28;20476;-68
2021/09/28 12:34:49;;;;;;;5.60;2.83;;;;;;;;;;5070793;28;20478;-68
2021/09/28 12:37:16;;;;;;;4.27;3.00;;;;;;;;;;5070521;28;20909;-68
2021/09/28 12:39:58;;;;;;;4.50;2.50;;;;;;;;;;5062170;28;20894;-67
2021/09/28 12:42:25;;;;;;;4.23;3.67;;;;;;;;;;5069030;28;20536;-68
2021/09/28 12:44:58;;;;;;;3.90;3.03;;;;;;;;;;5070023;28;20552;-71
2021/09/28 12:47:26;;;;;;;4.67;3.17;;;;;;;;;;5070467;28;20839;-68
2021/09/28 12:49:53;;;;;;;4.00;3.20;;;;;;;;;;5068922;28;20883;-71
2021/09/28 12:52:20;;;;;;;4.77;3.33;;;;;;;;;;5070883;28;20449;-68
2021/09/28 12:54:47;;;;;;;5.47;3.17;;;;;;;;;;5070990;28;20814;-68
2021/09/28 12:57:15;;;;;;;3.47;3.17;;;;;;;;;;5069909;28;20932;-68
2021/09/28 12:59:42;;;;;;;4.40;3.23;;;;;;;;;;5070454;28;20469;-68
2021/09/28 13:02:11;;;;;;;7.07;3.70;;;;;;;;;;5069683;28;21132;-68
2021/09/28 13:04:39;;;;;;;4.83;3.70;;;;;;;;;;5070555;28;20566;-68
2021/09/28 13:07:08;;;;;;;8.53;4.40;;;;;;;;;;5069362;28;20539;-68
2021/09/28 13:09:36;;;;;;;9.93;4.13;;;;;;;;;;5070474;28;20453;-68
2021/09/28 13:12:03;;;;;;;5.13;3.37;;;;;;;;;;5069970;28;20544;-68
2021/09/28 13:14:31;;;;;;;5.63;3.70;;;;;;;;;;5070217;28;20445;-70
2021/09/28 13:16:58;;;;;;;4.90;3.50;;;;;;;;;;5069938;28;20903;-68
2021/09/28 13:19:28;;;;;;;4.87;3.50;;;;;;;;;;5070266;28;20498;-68
2021/09/28 13:21:55;;;;;;;7.93;4.03;;;;;;;;;;5069490;28;20476;-68
2021/09/28 13:24:22;;;;;;;4.10;3.33;;;;;;;;;;5069847;28;20961;-68
2021/09/28 13:26:50;;;;;;;3.83;3.10;;;;;;;;;;5069956;28;20473;-72
2021/09/28 13:29:17;;;;;;;5.37;3.73;;;;;;;;;;5069791;28;20473;-68
2021/09/28 13:31:44;;;;;;;3.67;3.20;;;;;;;;;;5070222;28;20446;-67
2021/09/28 13:34:11;;;;;;;4.57;2.83;;;;;;;;;;5069021;28;20445;-68
2021/09/28 13:36:40;;;;;;;3.47;3.10;;;;;;;;;;5070118;28;20461;-68
2021/09/28 13:39:08;;;;;;;5.00;2.93;;;;;;;;;;5068313;28;20508;-69
2021/09/28 13:41:36;;;;;;;5.70;3.60;;;;;;;;;;5069723;28;20541;-68
2021/09/28 13:44:03;;;;;;;4.20;3.70;;;;;;;;;;5068876;28;20452;-68
2021/09/28 13:46:30;;;;;;;6.90;3.57;;;;;;;;;;5069915;28;20452;-69
2021/09/28 13:48:58;;;;;;;3.23;2.60;;;;;;;;;;5068564;28;20941;-68
2021/09/28 13:51:25;;;;;;;3.40;2.87;;;;;;;;;;5069734;28;20526;-68
2021/09/28 13:53:53;;;;;;;3.53;3.20;;;;;;;;;;5068873;28;20528;-71
2021/09/28 13:56:21;;;;;;;14.13;6.10;;;;;;;;;;5069835;28;20445;-68
2021/09/28 13:58:48;;;;;;;9.63;6.40;;;;;;;;;;5069357;28;20481;-67
2021/09/28 14:01:15;;;;;;;3.50;3.20;;;;;;;;;;5068725;28;20449;-68
2021/09/28 14:03:42;;;;;;;3.60;2.87;;;;;;;;;;5069619;28;20451;-68
2021/09/28 14:06:10;;;;;;;3.77;3.40;;;;;;;;;;5068570;28;22285;-68
2021/09/28 14:08:38;;;;;;;7.70;3.30;;;;;;;;;;5068970;28;20889;-68
2021/09/28 14:11:07;;;;;;;5.73;3.30;;;;;;;;;;5068878;28;20461;-68
2021/09/28 14:13:34;;;;;;;6.17;3.13;;;;;;;;;;5069229;28;20960;-68
2021/09/28 14:16:01;;;;;;;4.70;3.40;;;;;;;;;;5068830;28;20473;-68
2021/09/28 14:18:29;;;;;;;3.10;2.80;;;;;;;;;;5068924;28;20690;-68
2021/09/28 14:20:56;;;;;;;3.33;2.93;;;;;;;;;;5068791;28;20523;-68
2021/09/28 14:23:23;;;;;;;3.70;3.30;;;;;;;;;;5069542;28;20524;-67
2021/09/28 14:25:51;;;;;;;3.13;2.80;;;;;;;;;;5069329;28;20481;-71
2021/09/28 14:28:19;;;;;;;7.90;3.47;;;;;;;;;;5069307;28;20528;-68
2021/09/28 14:30:47;;;;;;;4.03;3.60;;;;;;;;;;5069770;28;20524;-68
2021/09/28 14:33:14;;;;;;;2.80;2.60;;;;;;;;;;5069604;28;20507;-68
2021/09/28 14:35:41;;;;;;;2.83;2.10;;;;;;;;;;5069552;28;20537;-68